createdAt,value
2022-08-09T00:00:24.832Z,99.90
2022-08-09T00:02:55.106Z,99.90
2022-08-09T00:06:19.426Z,99.90
2022-08-09T00:08:31.604Z,99.90
2022-08-09T00:11:05.648Z,99.90
2022-08-09T00:13:50.845Z,99.90
2022-08-09T00:16:26.378Z,99.90
2022-08-09T00:19:10.096Z,99.90
2022-08-09T00:21:56.332Z,99.90
2022-08-09T00:24:27.456Z,99.90
2022-08-09T00:26:57.646Z,99.90
2022-08-09T00:30:16.565Z,99.90
2022-08-09T00:32:26.845Z,99.90
2022-08-09T00:34:58.758Z,99.90
2022-08-09T00:37:30.207Z,99.90
2022-08-09T00:40:09.027Z,99.90
2022-08-09T00:44:16.063Z,99.90
2022-08-09T00:45:28.335Z,99.90
2022-08-09T00:47:56.594Z,99.90
2022-08-09T00:50:25.352Z,99.90
2022-08-09T00:52:55.781Z,99.90
2022-08-09T00:56:03.673Z,99.90
2022-08-09T00:58:14.647Z,99.90
2022-08-09T01:00:54.759Z,99.90
2022-08-09T01:03:40.917Z,99.90
2022-08-09T01:06:25.568Z,99.90
2022-08-09T01:09:13.143Z,99.90
2022-08-09T01:11:53.302Z,99.90
2022-08-09T01:14:32.896Z,99.90
2022-08-09T01:17:10.895Z,99.90
2022-08-09T01:19:57.067Z,99.90
2022-08-09T01:23:16.526Z,99.90
2022-08-09T01:26:12.903Z,99.90
2022-08-09T01:28:48.899Z,99.90
2022-08-09T01:31:23.382Z,99.90
2022-08-09T01:34:12.291Z,99.90
2022-08-09T01:36:44.597Z,99.90
2022-08-09T01:39:16.529Z,99.90
2022-08-09T01:41:59.909Z,99.90
2022-08-09T01:44:34.495Z,99.90
2022-08-09T01:47:05.346Z,99.90
2022-08-09T01:49:38.981Z,99.90
2022-08-09T01:52:11.644Z,99.90
2022-08-09T01:54:47.200Z,99.90
2022-08-09T01:57:20.499Z,99.90
2022-08-09T02:00:00.316Z,99.90
2022-08-09T02:02:41.589Z,99.90
2022-08-09T02:05:15.744Z,99.90
2022-08-09T02:08:35.078Z,99.90
2022-08-09T02:10:40.275Z,99.90
2022-08-09T02:13:12.764Z,99.90
2022-08-09T02:15:49.472Z,99.90
2022-08-09T02:18:23.666Z,99.90
2022-08-09T02:21:00.312Z,99.90
2022-08-09T02:23:39.730Z,99.90
2022-08-09T02:26:27.121Z,99.90
2022-08-09T02:29:00.113Z,99.90
2022-08-09T02:31:35.428Z,99.90
2022-08-09T02:34:13.583Z,99.90
2022-08-09T02:36:56.330Z,99.90
2022-08-09T02:39:39.694Z,99.90
2022-08-09T02:42:16.769Z,99.90
2022-08-09T02:44:49.318Z,99.90
2022-08-09T02:47:22.530Z,99.90
2022-08-09T02:50:01.586Z,99.90
2022-08-09T02:52:39.620Z,99.90
2022-08-09T02:55:20.832Z,99.90
2022-08-09T02:58:00.645Z,99.90
2022-08-09T03:00:57.912Z,99.90
2022-08-09T03:04:12.427Z,99.90
2022-08-09T03:06:19.743Z,99.90
2022-08-09T03:08:50.695Z,99.90
2022-08-09T03:11:29.749Z,99.90
2022-08-09T03:14:13.034Z,99.90
2022-08-09T03:16:47.404Z,99.90
2022-08-09T03:19:59.138Z,99.90
2022-08-09T03:22:12.165Z,99.90
2022-08-09T03:25:26.827Z,99.90
2022-08-09T03:27:45.457Z,99.90
2022-08-09T03:30:14.566Z,99.90
2022-08-09T03:32:59.628Z,99.90
2022-08-09T03:35:44.489Z,99.90
2022-08-09T03:38:28.803Z,99.90
2022-08-09T03:40:59.005Z,99.90
2022-08-09T03:43:32.213Z,99.90
2022-08-09T03:46:04.969Z,99.90
2022-08-09T03:48:53.980Z,99.90
2022-08-09T03:51:43.755Z,99.90
2022-08-09T03:54:15.726Z,99.90
2022-08-09T03:56:44.867Z,99.90
2022-08-09T03:59:20.925Z,99.90
2022-08-09T04:01:59.165Z,99.90
2022-08-09T04:04:32.548Z,99.90
2022-08-09T04:07:06.578Z,99.90
2022-08-09T04:09:47.459Z,99.90
2022-08-09T04:12:44.636Z,99.90
2022-08-09T04:15:29.670Z,99.90
2022-08-09T04:18:02.179Z,99.90
2022-08-09T04:20:30.740Z,99.90
2022-08-09T04:23:02.334Z,99.90
2022-08-09T04:25:31.014Z,99.90
2022-08-09T04:28:03.620Z,99.90
2022-08-09T04:30:32.264Z,99.90
2022-08-09T04:33:01.782Z,99.90
2022-08-09T04:35:32.958Z,99.90
2022-08-09T04:38:03.684Z,99.90
2022-08-09T04:40:46.406Z,99.90
2022-08-09T04:43:15.222Z,99.90
2022-08-09T04:45:53.753Z,99.90
2022-08-09T04:48:23.914Z,99.90
2022-08-09T04:51:01.855Z,99.90
2022-08-09T04:53:31.636Z,99.90
2022-08-09T04:56:00.575Z,99.90
2022-08-09T04:58:29.882Z,99.90
2022-08-09T05:01:00.429Z,99.90
2022-08-09T05:03:40.034Z,99.90
2022-08-09T05:06:11.922Z,99.90
2022-08-09T05:09:00.652Z,99.90
2022-08-09T05:11:35.588Z,99.90
2022-08-09T05:14:06.268Z,99.90
2022-08-09T05:16:58.367Z,99.90
2022-08-09T05:19:26.115Z,99.90
2022-08-09T05:22:00.170Z,99.90
2022-08-09T05:24:30.075Z,99.90
2022-08-09T05:26:58.474Z,99.90
2022-08-09T05:29:31.487Z,99.90
2022-08-09T05:32:03.769Z,99.90
2022-08-09T05:34:34.223Z,99.90
2022-08-09T05:37:07.347Z,99.90
2022-08-09T05:39:44.210Z,99.90
2022-08-09T05:42:17.552Z,99.90
2022-08-09T05:44:51.982Z,99.90
2022-08-09T05:47:21.410Z,99.90
2022-08-09T05:50:11.036Z,99.90
2022-08-09T05:52:38.714Z,99.90
2022-08-09T05:55:09.868Z,99.90
2022-08-09T05:57:57.020Z,99.90
2022-08-09T06:00:28.633Z,99.90
2022-08-09T06:02:58.096Z,99.90
2022-08-09T06:05:31.160Z,99.90
2022-08-09T06:08:19.394Z,99.90
2022-08-09T06:10:55.109Z,99.90
2022-08-09T06:13:23.768Z,99.90
2022-08-09T06:15:53.051Z,99.90
2022-08-09T06:18:25.007Z,99.90
2022-08-09T06:20:54.854Z,99.90
2022-08-09T06:23:58.890Z,99.90
2022-08-09T06:26:20.346Z,99.90
2022-08-09T06:28:50.076Z,99.90
2022-08-09T06:31:31.580Z,99.90
2022-08-09T06:34:08.236Z,99.90
2022-08-09T06:36:43.961Z,99.90
2022-08-09T06:39:12.744Z,99.90
2022-08-09T06:42:09.352Z,99.90
2022-08-09T06:44:30.664Z,99.90
2022-08-09T06:46:58.901Z,99.90
2022-08-09T06:49:44.762Z,99.90
2022-08-09T06:52:16.156Z,99.90
2022-08-09T06:54:44.574Z,99.90
2022-08-09T06:57:14.201Z,99.90
2022-08-09T07:00:56.499Z,99.90
2022-08-09T07:02:32.064Z,99.90
2022-08-09T07:05:01.051Z,99.90
2022-08-09T07:07:59.511Z,99.90
2022-08-09T07:10:29.648Z,99.90
2022-08-09T07:13:18.698Z,99.90
2022-08-09T07:16:36.331Z,99.90
2022-08-09T07:18:38.689Z,99.90
2022-08-09T07:21:07.742Z,99.90
2022-08-09T07:23:36.492Z,99.90
2022-08-09T07:26:24.789Z,99.90
2022-08-09T07:29:09.140Z,99.90
2022-08-09T07:31:45.321Z,99.90
2022-08-09T07:34:20.819Z,99.90
2022-08-09T07:36:49.852Z,99.90
2022-08-09T07:39:19.786Z,99.90
2022-08-09T07:41:49.253Z,99.90
2022-08-09T07:44:19.037Z,99.90
2022-08-09T07:46:58.502Z,99.90
2022-08-09T07:49:26.991Z,99.90
2022-08-09T07:52:03.715Z,99.90
2022-08-09T07:54:38.524Z,99.90
2022-08-09T07:57:11.675Z,99.90
2022-08-09T07:59:52.302Z,99.90
2022-08-09T08:02:29.829Z,99.90
2022-08-09T08:04:58.166Z,99.90
2022-08-09T08:08:44.047Z,99.90
2022-08-09T08:10:15.768Z,99.90
2022-08-09T08:12:46.900Z,99.90
2022-08-09T08:15:23.281Z,99.90
2022-08-09T08:17:58.044Z,99.90
2022-08-09T08:20:32.818Z,99.90
2022-08-09T08:23:16.146Z,99.90
2022-08-09T08:25:49.842Z,99.90
2022-08-09T08:28:31.974Z,99.90
2022-08-09T08:31:14.189Z,99.90
2022-08-09T08:33:52.867Z,99.90
2022-08-09T08:36:29.562Z,99.90
2022-08-09T08:39:00.329Z,99.90
2022-08-09T08:41:50.507Z,99.90
2022-08-09T08:44:27.074Z,99.90
2022-08-09T08:47:04.854Z,99.90
2022-08-09T08:49:47.719Z,99.90
2022-08-09T08:55:08.357Z,99.90
2022-08-09T08:57:37.508Z,99.90
2022-08-09T09:00:21.011Z,99.90
2022-08-09T09:03:11.812Z,99.90
2022-08-09T09:06:00.786Z,99.90
2022-08-09T09:08:37.716Z,99.90
2022-08-09T09:11:08.557Z,99.90
2022-08-09T09:13:54.836Z,99.90
2022-08-09T09:16:31.241Z,99.90
2022-08-09T09:22:07.728Z,99.90
2022-08-09T09:24:43.207Z,99.90
2022-08-09T09:28:03.035Z,99.90
2022-08-09T09:30:28.814Z,99.90
2022-08-09T09:33:15.957Z,99.90
2022-08-09T09:36:00.780Z,99.90
2022-08-09T09:38:46.800Z,99.90
2022-08-09T09:41:33.391Z,99.90
2022-08-09T09:44:27.564Z,99.90
2022-08-09T09:47:07.623Z,99.90
2022-08-09T09:50:07.593Z,99.90
2022-08-09T09:52:37.275Z,99.90
2022-08-09T09:55:24.425Z,99.90
2022-08-09T09:58:16.629Z,99.90
2022-08-09T10:00:53.661Z,99.90
2022-08-09T10:03:44.461Z,99.90
2022-08-09T10:06:14.649Z,99.90
2022-08-09T10:08:54.815Z,99.90
2022-08-09T10:11:59.979Z,99.90
2022-08-09T10:14:30.491Z,99.90
2022-08-09T10:17:24.045Z,99.90
2022-08-09T10:19:53.027Z,99.90
2022-08-09T10:22:33.645Z,99.90
2022-08-09T10:25:12.115Z,99.90
2022-08-09T10:27:45.476Z,99.90
2022-08-09T10:34:08.869Z,99.90
2022-08-09T10:36:09.522Z,99.90
2022-08-09T10:38:57.110Z,99.90
2022-08-09T10:41:31.221Z,99.90
2022-08-09T10:44:01.847Z,99.90
2022-08-09T10:46:57.566Z,99.90
2022-08-09T10:49:49.697Z,99.90
2022-08-09T10:52:47.745Z,99.90
2022-08-09T10:55:25.499Z,99.80
2022-08-09T10:58:00.353Z,99.60
2022-08-09T11:01:11.182Z,99.90
2022-08-09T11:03:49.600Z,99.70
2022-08-09T11:06:26.169Z,99.90
2022-08-09T11:08:59.610Z,97.10
2022-08-09T11:12:11.813Z,96.60
2022-08-09T11:14:44.757Z,97.20
2022-08-09T11:17:53.553Z,98.50
2022-08-09T11:20:49.710Z,97.20
2022-08-09T11:23:23.879Z,98.90
2022-08-09T11:25:54.868Z,99.90
2022-08-09T11:28:56.171Z,97.10
2022-08-09T11:31:52.883Z,99.90
2022-08-09T11:34:42.967Z,99.70
2022-08-09T11:37:25.384Z,99.50
2022-08-09T11:40:03.978Z,97.90
2022-08-09T11:42:43.527Z,99.60
2022-08-09T11:45:37.612Z,95.20
2022-08-09T11:48:26.621Z,95.00
2022-08-09T11:52:53.956Z,99.90
2022-08-09T11:54:13.800Z,97.60
2022-08-09T11:56:47.642Z,98.70
2022-08-09T11:59:30.539Z,96.60
2022-08-09T12:02:34.264Z,94.50
2022-08-09T12:04:54.711Z,98.10
2022-08-09T12:07:41.280Z,92.90
2022-08-09T12:10:38.030Z,94.60
2022-08-09T12:13:03.822Z,94.20
2022-08-09T12:15:52.584Z,97.30
2022-08-09T12:18:26.020Z,94.40
2022-08-09T12:21:02.765Z,94.90
2022-08-09T12:23:57.867Z,95.20
2022-08-09T12:26:25.568Z,97.50
2022-08-09T12:29:12.575Z,93.50
2022-08-09T12:31:58.943Z,95.40
2022-08-09T12:34:35.173Z,92.80
2022-08-09T12:37:21.781Z,90.20
2022-08-09T12:40:07.798Z,95.40
2022-08-09T12:42:37.357Z,91.20
2022-08-09T12:45:33.450Z,97.30
2022-08-09T12:47:55.409Z,91.40
2022-08-09T12:50:25.323Z,96.30
2022-08-09T12:53:09.161Z,95.10
2022-08-09T12:56:14.283Z,94.20
2022-08-09T12:58:31.727Z,93.00
2022-08-09T13:01:04.284Z,95.00
2022-08-09T13:03:57.269Z,96.50
2022-08-09T13:06:34.593Z,93.10
2022-08-09T13:09:08.525Z,90.90
2022-08-09T13:11:42.520Z,89.50
2022-08-09T13:14:41.144Z,91.30
2022-08-09T13:17:02.873Z,92.50
2022-08-09T13:20:10.124Z,90.40
2022-08-09T13:22:38.386Z,90.20
2022-08-09T13:25:14.717Z,92.30
2022-08-09T13:27:48.227Z,93.30
2022-08-09T13:30:48.882Z,96.10
2022-08-09T13:33:11.588Z,92.20
2022-08-09T13:36:38.919Z,92.20
2022-08-09T13:38:56.150Z,94.30
2022-08-09T13:41:58.821Z,94.30
2022-08-09T13:44:17.650Z,90.90
2022-08-09T13:47:29.827Z,94.00
2022-08-09T13:49:56.145Z,91.20
2022-08-09T13:52:26.490Z,93.70
2022-08-09T13:55:00.918Z,92.00
2022-08-09T13:57:39.384Z,93.70
2022-08-09T14:00:12.569Z,90.10
2022-08-09T14:03:02.789Z,90.00
2022-08-09T14:05:58.478Z,92.10
2022-08-09T14:08:26.873Z,94.10
2022-08-09T14:10:55.599Z,92.60
2022-08-09T14:13:27.861Z,93.50
2022-08-09T14:16:16.460Z,94.20
2022-08-09T14:18:49.285Z,94.00
2022-08-09T14:21:22.243Z,93.00
2022-08-09T14:23:54.919Z,93.90
2022-08-09T14:26:30.226Z,94.20
2022-08-09T14:30:18.477Z,92.90
2022-08-09T14:31:56.566Z,93.90
2022-08-09T14:34:27.191Z,92.40
2022-08-09T14:36:59.005Z,92.40
2022-08-09T14:39:47.173Z,91.20
2022-08-09T14:42:28.965Z,91.20
2022-08-09T14:46:54.122Z,88.40
2022-08-09T14:47:58.609Z,92.40
2022-08-09T14:50:32.488Z,91.70
2022-08-09T14:53:01.653Z,90.00
2022-08-09T14:55:32.565Z,92.30
2022-08-09T14:58:11.339Z,90.90
2022-08-09T15:00:51.181Z,90.30
2022-08-09T15:03:22.640Z,88.50
2022-08-09T15:05:58.146Z,90.30
2022-08-09T15:08:30.285Z,90.30
2022-08-09T15:11:00.627Z,92.90
2022-08-09T15:13:56.069Z,91.60
2022-08-09T15:16:30.368Z,90.20
2022-08-09T15:19:15.783Z,91.30
2022-08-09T15:21:54.650Z,91.30
2022-08-09T15:24:30.353Z,91.20
2022-08-09T15:26:59.519Z,92.50
2022-08-09T15:30:58.490Z,93.30
2022-08-09T15:32:28.852Z,93.30
2022-08-09T15:35:18.175Z,92.00
2022-08-09T15:37:56.943Z,91.20
2022-08-09T15:40:37.055Z,90.60
2022-08-09T15:43:05.823Z,90.60
2022-08-09T15:45:51.939Z,91.50
2022-08-09T15:48:28.821Z,92.00
2022-08-09T15:50:59.533Z,91.30
2022-08-09T15:54:05.213Z,91.40
2022-08-09T15:56:30.869Z,92.90
2022-08-09T15:59:00.236Z,91.40
2022-08-09T16:01:31.305Z,91.40
2022-08-09T16:04:05.646Z,91.30
2022-08-09T16:06:40.389Z,91.60
2022-08-09T16:09:13.306Z,91.20
2022-08-09T16:11:49.338Z,92.00
2022-08-09T16:14:24.157Z,93.10
2022-08-09T16:16:59.959Z,91.80
2022-08-09T16:19:29.858Z,90.80
2022-08-09T16:22:05.331Z,91.40
2022-08-09T16:24:34.402Z,92.90
2022-08-09T16:27:04.858Z,92.80
2022-08-09T16:29:37.722Z,91.50
2022-08-09T16:32:34.374Z,93.30
2022-08-09T16:35:05.759Z,93.60
2022-08-09T16:37:55.658Z,94.00
2022-08-09T16:40:40.038Z,94.50
2022-08-09T16:43:09.489Z,93.90
2022-08-09T16:45:43.877Z,92.20
2022-08-09T16:48:39.302Z,91.80
2022-08-09T16:51:08.362Z,94.80
2022-08-09T16:53:37.328Z,92.80
2022-08-09T16:56:10.003Z,93.40
2022-08-09T16:58:42.778Z,95.10
2022-08-09T17:01:19.359Z,95.00
2022-08-09T17:03:52.269Z,93.30
2022-08-09T17:06:31.991Z,93.50
2022-08-09T17:09:44.905Z,94.70
2022-08-09T17:11:52.807Z,96.30
2022-08-09T17:14:27.377Z,94.30
2022-08-09T17:16:59.871Z,95.80
2022-08-09T17:19:46.662Z,93.70
2022-08-09T17:22:24.832Z,95.30
2022-08-09T17:25:02.989Z,93.80
2022-08-09T17:27:33.845Z,94.90
2022-08-09T17:30:06.876Z,94.70
2022-08-09T17:32:44.369Z,94.60
2022-08-09T17:35:15.613Z,94.00
2022-08-09T17:38:14.613Z,95.60
2022-08-09T17:40:36.107Z,95.80
2022-08-09T17:43:32.289Z,96.50
2022-08-09T17:46:04.091Z,94.20
2022-08-09T17:48:38.771Z,95.40
2022-08-09T17:51:17.108Z,95.80
2022-08-09T17:53:53.042Z,96.50
2022-08-09T17:56:27.444Z,95.40
2022-08-09T17:58:59.661Z,96.50
2022-08-09T18:02:06.082Z,96.30
2022-08-09T18:04:24.513Z,96.50
2022-08-09T18:07:23.665Z,96.60
2022-08-09T18:10:05.008Z,97.60
2022-08-09T18:13:38.277Z,96.00
2022-08-09T18:15:50.390Z,95.60
2022-08-09T18:18:25.566Z,96.10
2022-08-09T18:21:19.231Z,97.00
2022-08-09T18:24:09.602Z,95.50
2022-08-09T18:26:34.885Z,96.40
2022-08-09T18:30:35.215Z,95.80
2022-08-09T18:31:56.613Z,96.70
2022-08-09T18:34:27.492Z,97.20
2022-08-09T18:36:57.600Z,97.30
2022-08-09T18:39:31.964Z,98.40
2022-08-09T18:42:08.163Z,98.00
2022-08-09T18:44:40.309Z,97.30
2022-08-09T18:47:17.535Z,97.20
2022-08-09T18:49:49.751Z,96.70
2022-08-09T18:52:24.791Z,97.90
2022-08-09T18:55:03.890Z,98.70
2022-08-09T18:57:43.255Z,98.30
2022-08-09T19:00:16.697Z,98.40
2022-08-09T19:02:51.184Z,99.00
2022-08-09T19:05:28.910Z,97.80
2022-08-09T19:08:10.568Z,99.40
2022-08-09T19:10:42.332Z,99.60
2022-08-09T19:13:20.911Z,99.50
2022-08-09T19:15:52.654Z,99.90
2022-08-09T19:18:34.165Z,99.90
2022-08-09T19:21:09.127Z,99.90
2022-08-09T19:24:36.193Z,99.90
2022-08-09T19:26:31.791Z,99.90
2022-08-09T19:29:09.709Z,99.90
2022-08-09T19:31:46.648Z,99.90
2022-08-09T19:34:22.739Z,99.90
2022-08-09T19:36:53.960Z,99.90
2022-08-09T19:39:29.257Z,99.90
2022-08-09T19:42:14.894Z,99.90
2022-08-09T19:44:49.357Z,99.90
2022-08-09T19:47:23.275Z,99.90
2022-08-09T19:50:05.136Z,99.90
2022-08-09T19:52:49.476Z,99.90
2022-08-09T19:55:25.762Z,99.90
2022-08-09T19:57:59.595Z,99.90
2022-08-09T20:00:29.361Z,99.90
2022-08-09T20:04:11.550Z,99.90
2022-08-09T20:05:50.633Z,99.90
2022-08-09T20:08:33.211Z,99.90
2022-08-09T20:11:04.416Z,99.90
2022-08-09T20:13:37.067Z,99.90
2022-08-09T20:16:38.492Z,99.90
2022-08-09T20:19:41.918Z,99.90
2022-08-09T20:21:56.040Z,99.90
2022-08-09T20:24:29.877Z,99.90
2022-08-09T20:27:08.085Z,99.90
2022-08-09T20:29:38.679Z,99.90
2022-08-09T20:32:29.207Z,99.90
2022-08-09T20:35:01.557Z,99.90
2022-08-09T20:38:08.700Z,99.90
2022-08-09T20:40:26.777Z,99.90
2022-08-09T20:42:59.809Z,99.90
2022-08-09T20:46:01.710Z,99.90
2022-08-09T20:48:31.889Z,99.90
2022-08-09T20:51:00.950Z,99.90
2022-08-09T20:53:36.565Z,99.90
2022-08-09T20:56:19.831Z,99.90
2022-08-09T20:58:54.307Z,99.90
2022-08-09T21:01:34.321Z,99.90
2022-08-09T21:05:54.481Z,99.90
2022-08-09T21:07:11.020Z,99.90
2022-08-09T21:09:55.460Z,99.90
2022-08-09T21:15:13.555Z,99.90
2022-08-09T21:18:11.415Z,99.90
2022-08-09T21:20:32.380Z,99.90
2022-08-09T21:23:01.350Z,99.90
2022-08-09T21:25:56.212Z,99.90
2022-08-09T21:28:34.360Z,99.90
2022-08-09T21:31:19.481Z,99.90
2022-08-09T21:33:56.739Z,99.90
2022-08-09T21:36:29.062Z,99.90
2022-08-09T21:38:59.653Z,99.90
2022-08-09T21:42:03.974Z,99.90
2022-08-09T21:44:33.956Z,99.90
2022-08-09T21:47:04.486Z,99.90
2022-08-09T21:49:39.553Z,99.90
2022-08-09T21:52:16.646Z,99.90
2022-08-09T21:54:51.096Z,99.90
2022-08-09T21:57:39.513Z,99.90
2022-08-09T22:00:25.320Z,99.90
2022-08-09T22:02:58.953Z,99.90
2022-08-09T22:05:36.121Z,99.90
2022-08-09T22:08:12.916Z,99.90
2022-08-09T22:11:48.809Z,99.90
2022-08-09T22:13:34.401Z,99.90
2022-08-09T22:16:07.184Z,99.90
2022-08-09T22:18:35.620Z,99.90
2022-08-09T22:21:09.375Z,99.90
2022-08-09T22:24:00.109Z,99.90
2022-08-09T22:26:34.846Z,99.90
2022-08-09T22:29:09.419Z,99.90
2022-08-09T22:31:44.047Z,99.90
2022-08-09T22:34:14.689Z,99.90
2022-08-09T22:36:46.354Z,99.90
2022-08-09T22:39:46.635Z,99.90
2022-08-09T22:42:21.379Z,99.90
2022-08-09T22:48:06.133Z,99.90
2022-08-09T22:48:15.098Z,99.90
2022-08-09T22:50:27.994Z,99.90
2022-08-09T22:52:58.370Z,99.90
2022-08-09T22:55:39.742Z,99.90
2022-08-09T22:58:20.394Z,99.90
2022-08-09T23:01:02.157Z,99.90
2022-08-09T23:04:03.356Z,99.90
2022-08-09T23:06:30.102Z,99.90
2022-08-09T23:09:05.462Z,99.90
2022-08-09T23:11:35.284Z,99.90
2022-08-09T23:14:09.115Z,99.90
2022-08-09T23:16:39.125Z,99.90
2022-08-09T23:19:07.624Z,99.90
2022-08-09T23:21:37.007Z,99.90
2022-08-09T23:24:07.603Z,99.90
2022-08-09T23:26:39.038Z,99.90
2022-08-09T23:29:08.362Z,99.90
2022-08-09T23:31:36.487Z,99.90
2022-08-09T23:34:05.306Z,99.90
2022-08-09T23:36:34.261Z,99.90
2022-08-09T23:39:02.900Z,99.90
2022-08-09T23:41:31.176Z,99.90
2022-08-09T23:44:02.363Z,99.90
2022-08-09T23:46:31.362Z,99.90
2022-08-09T23:49:00.034Z,99.90
2022-08-09T23:51:28.983Z,99.90
2022-08-09T23:54:03.251Z,99.90
2022-08-09T23:56:53.256Z,99.90
2022-08-09T23:59:22.308Z,99.90
